sensor_id;sensor_type;location;lat;lon;timestamp;P1;durP1;ratioP1;P2;durP2;ratioP2
66270;SDS011;53063;39.614;8.814;2023-12-28T00:01:30;9.30;;;3.10;;
66270;SDS011;53063;39.614;8.814;2023-12-28T00:03:56;4.38;;;2.67;;
66270;SDS011;53063;39.614;8.814;2023-12-28T00:06:22;4.00;;;2.13;;
66270;SDS011;53063;39.614;8.814;2023-12-28T00:08:47;5.38;;;2.50;;
66270;SDS011;53063;39.614;8.814;2023-12-28T00:11:13;4.45;;;2.03;;
66270;SDS011;53063;39.614;8.814;2023-12-28T00:13:39;3.80;;;2.08;;
66270;SDS011;53063;39.614;8.814;2023-12-28T00:16:05;5.60;;;2.13;;
66270;SDS011;53063;39.614;8.814;2023-12-28T00:18:31;3.33;;;1.92;;
66270;SDS011;53063;39.614;8.814;2023-12-28T00:20:57;2.47;;;1.50;;
66270;SDS011;53063;39.614;8.814;2023-12-28T00:23:23;5.30;;;1.55;;
66270;SDS011;53063;39.614;8.814;2023-12-28T00:25:49;3.33;;;2.03;;
66270;SDS011;53063;39.614;8.814;2023-12-28T00:28:15;4.78;;;2.00;;
66270;SDS011;53063;39.614;8.814;2023-12-28T00:30:41;7.57;;;2.20;;
66270;SDS011;53063;39.614;8.814;2023-12-28T00:33:06;2.53;;;1.90;;
66270;SDS011;53063;39.614;8.814;2023-12-28T00:35:32;3.60;;;1.92;;
66270;SDS011;53063;39.614;8.814;2023-12-28T00:37:58;2.58;;;1.90;;
66270;SDS011;53063;39.614;8.814;2023-12-28T00:40:24;3.10;;;1.58;;
66270;SDS011;53063;39.614;8.814;2023-12-28T00:42:50;4.18;;;1.85;;
66270;SDS011;53063;39.614;8.814;2023-12-28T00:45:16;2.17;;;1.40;;
66270;SDS011;53063;39.614;8.814;2023-12-28T00:47:42;4.00;;;1.40;;
66270;SDS011;53063;39.614;8.814;2023-12-28T00:50:08;2.78;;;1.23;;
66270;SDS011;53063;39.614;8.814;2023-12-28T00:52:40;2.03;;;1.20;;
66270;SDS011;53063;39.614;8.814;2023-12-28T00:55:06;4.05;;;1.60;;
66270;SDS011;53063;39.614;8.814;2023-12-28T00:57:33;6.07;;;3.58;;
66270;SDS011;53063;39.614;8.814;2023-12-28T01:00:00;6.18;;;2.42;;
66270;SDS011;53063;39.614;8.814;2023-12-28T01:02:26;4.75;;;2.10;;
66270;SDS011;53063;39.614;8.814;2023-12-28T01:04:53;4.47;;;2.33;;
66270;SDS011;53063;39.614;8.814;2023-12-28T01:07:19;3.25;;;1.75;;
66270;SDS011;53063;39.614;8.814;2023-12-28T01:09:45;5.00;;;2.50;;
66270;SDS011;53063;39.614;8.814;2023-12-28T01:12:10;5.55;;;3.05;;
66270;SDS011;53063;39.614;8.814;2023-12-28T01:14:36;4.15;;;3.08;;
66270;SDS011;53063;39.614;8.814;2023-12-28T01:17:02;6.43;;;2.75;;
66270;SDS011;53063;39.614;8.814;2023-12-28T01:19:28;5.45;;;3.47;;
66270;SDS011;53063;39.614;8.814;2023-12-28T01:21:54;8.77;;;3.88;;
66270;SDS011;53063;39.614;8.814;2023-12-28T01:24:21;8.10;;;3.67;;
66270;SDS011;53063;39.614;8.814;2023-12-28T01:26:47;6.65;;;4.53;;
66270;SDS011;53063;39.614;8.814;2023-12-28T01:29:12;11.50;;;5.03;;
66270;SDS011;53063;39.614;8.814;2023-12-28T01:31:38;7.20;;;4.88;;
66270;SDS011;53063;39.614;8.814;2023-12-28T01:34:05;9.10;;;4.53;;
66270;SDS011;53063;39.614;8.814;2023-12-28T01:36:32;10.52;;;4.53;;
66270;SDS011;53063;39.614;8.814;2023-12-28T01:38:58;8.35;;;4.40;;
66270;SDS011;53063;39.614;8.814;2023-12-28T01:41:24;6.65;;;4.25;;
66270;SDS011;53063;39.614;8.814;2023-12-28T01:43:51;6.90;;;4.10;;
66270;SDS011;53063;39.614;8.814;2023-12-28T01:46:18;8.10;;;4.38;;
66270;SDS011;53063;39.614;8.814;2023-12-28T01:48:46;8.70;;;4.10;;
66270;SDS011;53063;39.614;8.814;2023-12-28T01:51:14;8.82;;;4.60;;
66270;SDS011;53063;39.614;8.814;2023-12-28T01:53:41;7.80;;;4.45;;
66270;SDS011;53063;39.614;8.814;2023-12-28T01:56:08;8.20;;;4.93;;
66270;SDS011;53063;39.614;8.814;2023-12-28T01:58:35;8.85;;;4.85;;
66270;SDS011;53063;39.614;8.814;2023-12-28T02:01:03;11.27;;;5.20;;
66270;SDS011;53063;39.614;8.814;2023-12-28T02:03:30;11.02;;;5.60;;
66270;SDS011;53063;39.614;8.814;2023-12-28T02:05:56;9.45;;;5.00;;
66270;SDS011;53063;39.614;8.814;2023-12-28T02:08:22;13.88;;;5.82;;
66270;SDS011;53063;39.614;8.814;2023-12-28T02:10:48;12.32;;;6.00;;
66270;SDS011;53063;39.614;8.814;2023-12-28T02:13:15;11.40;;;4.70;;
66270;SDS011;53063;39.614;8.814;2023-12-28T02:15:43;10.50;;;5.72;;
66270;SDS011;53063;39.614;8.814;2023-12-28T02:18:16;8.77;;;4.75;;
66270;SDS011;53063;39.614;8.814;2023-12-28T02:20:46;9.82;;;5.45;;
66270;SDS011;53063;39.614;8.814;2023-12-28T02:23:15;13.30;;;5.95;;
66270;SDS011;53063;39.614;8.814;2023-12-28T02:25:42;5.45;;;3.17;;
66270;SDS011;53063;39.614;8.814;2023-12-28T02:28:08;7.20;;;4.20;;
66270;SDS011;53063;39.614;8.814;2023-12-28T02:30:34;8.57;;;4.95;;
66270;SDS011;53063;39.614;8.814;2023-12-28T02:35:58;7.95;;;3.60;;
66270;SDS011;53063;39.614;8.814;2023-12-28T02:38:30;3.63;;;1.88;;
66270;SDS011;53063;39.614;8.814;2023-12-28T02:41:01;2.22;;;1.50;;
66270;SDS011;53063;39.614;8.814;2023-12-28T02:43:28;5.72;;;3.08;;
66270;SDS011;53063;39.614;8.814;2023-12-28T02:45:56;6.28;;;3.40;;
66270;SDS011;53063;39.614;8.814;2023-12-28T02:48:22;4.70;;;2.17;;
66270;SDS011;53063;39.614;8.814;2023-12-28T02:50:47;5.93;;;3.13;;
66270;SDS011;53063;39.614;8.814;2023-12-28T02:53:15;5.82;;;2.60;;
66270;SDS011;53063;39.614;8.814;2023-12-28T02:55:41;3.95;;;1.60;;
66270;SDS011;53063;39.614;8.814;2023-12-28T02:58:07;4.43;;;1.63;;
66270;SDS011;53063;39.614;8.814;2023-12-28T03:00:33;6.45;;;1.30;;
66270;SDS011;53063;39.614;8.814;2023-12-28T03:02:59;3.55;;;1.75;;
66270;SDS011;53063;39.614;8.814;2023-12-28T03:05:26;4.40;;;1.27;;
66270;SDS011;53063;39.614;8.814;2023-12-28T03:07:52;2.97;;;1.13;;
66270;SDS011;53063;39.614;8.814;2023-12-28T03:10:20;3.92;;;1.45;;
66270;SDS011;53063;39.614;8.814;2023-12-28T03:12:46;3.85;;;1.15;;
66270;SDS011;53063;39.614;8.814;2023-12-28T03:15:13;3.85;;;1.02;;
66270;SDS011;53063;39.614;8.814;2023-12-28T03:17:39;3.30;;;1.20;;
66270;SDS011;53063;39.614;8.814;2023-12-28T03:20:05;3.55;;;1.38;;
66270;SDS011;53063;39.614;8.814;2023-12-28T03:22:31;6.05;;;1.30;;
66270;SDS011;53063;39.614;8.814;2023-12-28T03:24:57;2.40;;;1.30;;
66270;SDS011;53063;39.614;8.814;2023-12-28T03:27:23;2.50;;;1.20;;
66270;SDS011;53063;39.614;8.814;2023-12-28T03:29:49;3.33;;;1.67;;
66270;SDS011;53063;39.614;8.814;2023-12-28T03:32:15;3.05;;;0.90;;
66270;SDS011;53063;39.614;8.814;2023-12-28T03:34:42;3.63;;;1.20;;
66270;SDS011;53063;39.614;8.814;2023-12-28T03:37:08;3.08;;;1.20;;
66270;SDS011;53063;39.614;8.814;2023-12-28T03:39:36;3.35;;;1.17;;
66270;SDS011;53063;39.614;8.814;2023-12-28T03:42:02;1.60;;;0.93;;
66270;SDS011;53063;39.614;8.814;2023-12-28T03:44:28;3.70;;;1.27;;
66270;SDS011;53063;39.614;8.814;2023-12-28T03:46:54;3.15;;;1.20;;
66270;SDS011;53063;39.614;8.814;2023-12-28T03:49:21;1.73;;;0.80;;
66270;SDS011;53063;39.614;8.814;2023-12-28T03:51:47;1.38;;;0.80;;
66270;SDS011;53063;39.614;8.814;2023-12-28T03:54:16;2.17;;;0.90;;
66270;SDS011;53063;39.614;8.814;2023-12-28T03:56:42;3.25;;;1.25;;
66270;SDS011;53063;39.614;8.814;2023-12-28T03:59:09;3.05;;;1.33;;
66270;SDS011;53063;39.614;8.814;2023-12-28T04:01:35;6.10;;;1.52;;
66270;SDS011;53063;39.614;8.814;2023-12-28T04:04:01;1.42;;;1.02;;
66270;SDS011;53063;39.614;8.814;2023-12-28T04:06:27;2.30;;;1.10;;
66270;SDS011;53063;39.614;8.814;2023-12-28T04:08:53;4.78;;;1.35;;
66270;SDS011;53063;39.614;8.814;2023-12-28T04:11:19;2.47;;;0.98;;
66270;SDS011;53063;39.614;8.814;2023-12-28T04:13:45;2.03;;;0.98;;
66270;SDS011;53063;39.614;8.814;2023-12-28T04:16:12;3.95;;;1.00;;
66270;SDS011;53063;39.614;8.814;2023-12-28T04:18:41;2.40;;;0.98;;
66270;SDS011;53063;39.614;8.814;2023-12-28T04:21:11;2.20;;;0.85;;
66270;SDS011;53063;39.614;8.814;2023-12-28T04:23:39;3.58;;;1.67;;
66270;SDS011;53063;39.614;8.814;2023-12-28T04:26:06;2.00;;;1.10;;
66270;SDS011;53063;39.614;8.814;2023-12-28T04:28:33;3.50;;;1.00;;
66270;SDS011;53063;39.614;8.814;2023-12-28T04:31:05;3.05;;;1.10;;
66270;SDS011;53063;39.614;8.814;2023-12-28T04:33:32;2.03;;;0.90;;
66270;SDS011;53063;39.614;8.814;2023-12-28T04:36:01;2.60;;;1.10;;
66270;SDS011;53063;39.614;8.814;2023-12-28T04:38:31;1.98;;;1.10;;
66270;SDS011;53063;39.614;8.814;2023-12-28T04:40:58;1.30;;;0.90;;
66270;SDS011;53063;39.614;8.814;2023-12-28T04:43:25;4.90;;;1.08;;
66270;SDS011;53063;39.614;8.814;2023-12-28T04:45:51;2.67;;;1.08;;
66270;SDS011;53063;39.614;8.814;2023-12-28T04:48:17;3.30;;;0.70;;
66270;SDS011;53063;39.614;8.814;2023-12-28T04:50:49;0.80;;;0.80;;
66270;SDS011;53063;39.614;8.814;2023-12-28T04:53:15;1.67;;;0.70;;
66270;SDS011;53063;39.614;8.814;2023-12-28T04:55:41;3.58;;;0.70;;
66270;SDS011;53063;39.614;8.814;2023-12-28T04:58:07;2.38;;;0.80;;
66270;SDS011;53063;39.614;8.814;2023-12-28T05:00:33;2.15;;;1.20;;
66270;SDS011;53063;39.614;8.814;2023-12-28T05:02:59;1.65;;;0.88;;
66270;SDS011;53063;39.614;8.814;2023-12-28T05:05:25;2.90;;;0.82;;
66270;SDS011;53063;39.614;8.814;2023-12-28T05:07:51;7.82;;;3.33;;
66270;SDS011;53063;39.614;8.814;2023-12-28T05:10:17;7.05;;;4.47;;
66270;SDS011;53063;39.614;8.814;2023-12-28T05:12:43;17.30;;;7.63;;
66270;SDS011;53063;39.614;8.814;2023-12-28T05:15:09;9.80;;;5.07;;
66270;SDS011;53063;39.614;8.814;2023-12-28T05:17:35;9.85;;;4.80;;
66270;SDS011;53063;39.614;8.814;2023-12-28T05:20:01;15.57;;;6.68;;
66270;SDS011;53063;39.614;8.814;2023-12-28T05:22:27;13.45;;;6.22;;
66270;SDS011;53063;39.614;8.814;2023-12-28T05:24:53;9.05;;;5.75;;
66270;SDS011;53063;39.614;8.814;2023-12-28T05:27:19;11.73;;;4.60;;
66270;SDS011;53063;39.614;8.814;2023-12-28T05:29:45;9.80;;;5.28;;
66270;SDS011;53063;39.614;8.814;2023-12-28T05:32:10;13.10;;;5.95;;
66270;SDS011;53063;39.614;8.814;2023-12-28T05:34:36;13.13;;;6.07;;
66270;SDS011;53063;39.614;8.814;2023-12-28T05:37:02;9.50;;;6.00;;
66270;SDS011;53063;39.614;8.814;2023-12-28T05:39:28;7.95;;;5.05;;
66270;SDS011;53063;39.614;8.814;2023-12-28T05:41:54;9.38;;;5.55;;
66270;SDS011;53063;39.614;8.814;2023-12-28T05:44:20;9.57;;;5.10;;
66270;SDS011;53063;39.614;8.814;2023-12-28T05:46:46;9.30;;;5.10;;
66270;SDS011;53063;39.614;8.814;2023-12-28T05:49:12;10.02;;;6.53;;
66270;SDS011;53063;39.614;8.814;2023-12-28T05:51:38;5.28;;;3.78;;
66270;SDS011;53063;39.614;8.814;2023-12-28T05:54:07;5.10;;;3.60;;
66270;SDS011;53063;39.614;8.814;2023-12-28T05:56:34;8.35;;;4.45;;
66270;SDS011;53063;39.614;8.814;2023-12-28T05:59:00;6.07;;;3.60;;
66270;SDS011;53063;39.614;8.814;2023-12-28T06:01:26;5.70;;;2.65;;
66270;SDS011;53063;39.614;8.814;2023-12-28T06:03:52;4.03;;;2.17;;
66270;SDS011;53063;39.614;8.814;2023-12-28T06:06:19;4.80;;;2.40;;
66270;SDS011;53063;39.614;8.814;2023-12-28T06:08:45;22.60;;;11.95;;
66270;SDS011;53063;39.614;8.814;2023-12-28T06:11:11;16.63;;;8.52;;
66270;SDS011;53063;39.614;8.814;2023-12-28T06:13:37;6.07;;;4.25;;
66270;SDS011;53063;39.614;8.814;2023-12-28T06:16:03;9.52;;;5.22;;
66270;SDS011;53063;39.614;8.814;2023-12-28T06:18:29;9.80;;;5.10;;
66270;SDS011;53063;39.614;8.814;2023-12-28T06:20:56;5.63;;;4.03;;
66270;SDS011;53063;39.614;8.814;2023-12-28T06:23:22;4.28;;;2.55;;
66270;SDS011;53063;39.614;8.814;2023-12-28T06:25:48;11.85;;;6.80;;
66270;SDS011;53063;39.614;8.814;2023-12-28T06:28:14;29.63;;;19.08;;
66270;SDS011;53063;39.614;8.814;2023-12-28T06:30:40;10.30;;;6.70;;
66270;SDS011;53063;39.614;8.814;2023-12-28T06:33:05;13.50;;;7.88;;
66270;SDS011;53063;39.614;8.814;2023-12-28T06:35:31;9.65;;;6.38;;
66270;SDS011;53063;39.614;8.814;2023-12-28T06:37:57;4.43;;;3.30;;
66270;SDS011;53063;39.614;8.814;2023-12-28T06:40:23;7.47;;;4.30;;
66270;SDS011;53063;39.614;8.814;2023-12-28T06:42:49;8.63;;;4.97;;
66270;SDS011;53063;39.614;8.814;2023-12-28T06:45:15;16.75;;;7.95;;
66270;SDS011;53063;39.614;8.814;2023-12-28T06:47:41;2.83;;;2.00;;
66270;SDS011;53063;39.614;8.814;2023-12-28T06:50:07;3.78;;;1.85;;
66270;SDS011;53063;39.614;8.814;2023-12-28T06:52:33;10.68;;;5.25;;
66270;SDS011;53063;39.614;8.814;2023-12-28T06:54:59;4.78;;;2.00;;
66270;SDS011;53063;39.614;8.814;2023-12-28T06:57:25;10.32;;;2.85;;
66270;SDS011;53063;39.614;8.814;2023-12-28T06:59:51;10.00;;;5.07;;
66270;SDS011;53063;39.614;8.814;2023-12-28T07:02:17;7.57;;;3.67;;
66270;SDS011;53063;39.614;8.814;2023-12-28T07:04:43;9.18;;;4.75;;
66270;SDS011;53063;39.614;8.814;2023-12-28T07:07:09;5.22;;;2.90;;
66270;SDS011;53063;39.614;8.814;2023-12-28T07:09:35;9.02;;;3.78;;
66270;SDS011;53063;39.614;8.814;2023-12-28T07:12:02;6.85;;;3.72;;
66270;SDS011;53063;39.614;8.814;2023-12-28T07:14:28;19.25;;;8.88;;
66270;SDS011;53063;39.614;8.814;2023-12-28T07:16:54;49.88;;;25.70;;
66270;SDS011;53063;39.614;8.814;2023-12-28T07:19:20;11.00;;;6.25;;
66270;SDS011;53063;39.614;8.814;2023-12-28T07:21:46;13.27;;;5.13;;
66270;SDS011;53063;39.614;8.814;2023-12-28T07:24:12;7.50;;;3.67;;
66270;SDS011;53063;39.614;8.814;2023-12-28T07:26:38;9.00;;;4.55;;
66270;SDS011;53063;39.614;8.814;2023-12-28T07:29:04;11.35;;;5.43;;
66270;SDS011;53063;39.614;8.814;2023-12-28T07:31:29;7.50;;;3.92;;
66270;SDS011;53063;39.614;8.814;2023-12-28T07:33:57;5.50;;;2.83;;
66270;SDS011;53063;39.614;8.814;2023-12-28T07:36:23;6.40;;;3.13;;
66270;SDS011;53063;39.614;8.814;2023-12-28T07:38:49;7.78;;;4.13;;
66270;SDS011;53063;39.614;8.814;2023-12-28T07:41:14;8.23;;;4.63;;
66270;SDS011;53063;39.614;8.814;2023-12-28T07:43:40;10.02;;;6.10;;
66270;SDS011;53063;39.614;8.814;2023-12-28T07:46:06;9.18;;;4.75;;
66270;SDS011;53063;39.614;8.814;2023-12-28T07:48:33;21.25;;;11.82;;
66270;SDS011;53063;39.614;8.814;2023-12-28T07:51:05;56.70;;;30.02;;
66270;SDS011;53063;39.614;8.814;2023-12-28T07:53:32;13.45;;;8.60;;
66270;SDS011;53063;39.614;8.814;2023-12-28T07:55:58;18.58;;;13.15;;
66270;SDS011;53063;39.614;8.814;2023-12-28T07:58:24;12.15;;;9.88;;
66270;SDS011;53063;39.614;8.814;2023-12-28T08:00:50;13.25;;;9.38;;
66270;SDS011;53063;39.614;8.814;2023-12-28T08:03:17;26.75;;;19.92;;
66270;SDS011;53063;39.614;8.814;2023-12-28T08:05:43;21.30;;;14.73;;
66270;SDS011;53063;39.614;8.814;2023-12-28T08:08:09;48.42;;;30.30;;
66270;SDS011;53063;39.614;8.814;2023-12-28T08:10:34;56.08;;;37.42;;
66270;SDS011;53063;39.614;8.814;2023-12-28T08:13:01;39.05;;;24.75;;
66270;SDS011;53063;39.614;8.814;2023-12-28T08:15:26;79.00;;;42.08;;
66270;SDS011;53063;39.614;8.814;2023-12-28T08:17:52;62.45;;;31.30;;
66270;SDS011;53063;39.614;8.814;2023-12-28T08:20:18;22.15;;;11.30;;
66270;SDS011;53063;39.614;8.814;2023-12-28T08:22:44;19.90;;;10.93;;
66270;SDS011;53063;39.614;8.814;2023-12-28T08:25:10;53.75;;;32.08;;
66270;SDS011;53063;39.614;8.814;2023-12-28T08:27:36;23.70;;;14.07;;
66270;SDS011;53063;39.614;8.814;2023-12-28T08:30:02;35.78;;;17.35;;
66270;SDS011;53063;39.614;8.814;2023-12-28T08:32:29;27.33;;;14.05;;
66270;SDS011;53063;39.614;8.814;2023-12-28T08:34:55;35.78;;;19.77;;
66270;SDS011;53063;39.614;8.814;2023-12-28T08:37:21;16.80;;;10.02;;
66270;SDS011;53063;39.614;8.814;2023-12-28T08:39:47;83.75;;;39.40;;
66270;SDS011;53063;39.614;8.814;2023-12-28T08:42:13;71.00;;;33.90;;
66270;SDS011;53063;39.614;8.814;2023-12-28T08:44:39;76.13;;;35.45;;
66270;SDS011;53063;39.614;8.814;2023-12-28T08:47:05;76.05;;;36.67;;
66270;SDS011;53063;39.614;8.814;2023-12-28T08:49:31;40.22;;;20.33;;
66270;SDS011;53063;39.614;8.814;2023-12-28T08:51:58;45.00;;;21.17;;
66270;SDS011;53063;39.614;8.814;2023-12-28T08:54:24;20.42;;;10.13;;
66270;SDS011;53063;39.614;8.814;2023-12-28T08:56:50;71.90;;;35.50;;
66270;SDS011;53063;39.614;8.814;2023-12-28T08:59:16;166.80;;;78.15;;
66270;SDS011;53063;39.614;8.814;2023-12-28T09:01:42;108.25;;;56.55;;
66270;SDS011;53063;39.614;8.814;2023-12-28T09:04:08;28.83;;;14.52;;
66270;SDS011;53063;39.614;8.814;2023-12-28T09:06:33;245.65;;;101.32;;
66270;SDS011;53063;39.614;8.814;2023-12-28T09:09:00;82.78;;;40.30;;
66270;SDS011;53063;39.614;8.814;2023-12-28T09:11:27;19.65;;;11.38;;
66270;SDS011;53063;39.614;8.814;2023-12-28T09:13:54;21.23;;;13.73;;
66270;SDS011;53063;39.614;8.814;2023-12-28T09:16:19;26.00;;;13.93;;
66270;SDS011;53063;39.614;8.814;2023-12-28T09:18:45;7.20;;;4.65;;
66270;SDS011;53063;39.614;8.814;2023-12-28T09:21:12;7.05;;;3.72;;
66270;SDS011;53063;39.614;8.814;2023-12-28T09:23:38;8.77;;;5.57;;
66270;SDS011;53063;39.614;8.814;2023-12-28T09:26:05;8.40;;;4.30;;
66270;SDS011;53063;39.614;8.814;2023-12-28T09:28:32;9.02;;;4.15;;
66270;SDS011;53063;39.614;8.814;2023-12-28T09:30:59;8.85;;;5.20;;
66270;SDS011;53063;39.614;8.814;2023-12-28T09:33:29;5.50;;;3.50;;
66270;SDS011;53063;39.614;8.814;2023-12-28T09:35:55;6.68;;;3.60;;
66270;SDS011;53063;39.614;8.814;2023-12-28T09:38:21;6.18;;;3.67;;
66270;SDS011;53063;39.614;8.814;2023-12-28T09:40:50;10.13;;;3.67;;
66270;SDS011;53063;39.614;8.814;2023-12-28T09:43:22;7.93;;;4.30;;
66270;SDS011;53063;39.614;8.814;2023-12-28T09:45:48;18.45;;;10.00;;
66270;SDS011;53063;39.614;8.814;2023-12-28T09:48:15;23.30;;;10.80;;
66270;SDS011;53063;39.614;8.814;2023-12-28T09:50:43;6.75;;;3.60;;
66270;SDS011;53063;39.614;8.814;2023-12-28T09:53:25;15.55;;;6.32;;
66270;SDS011;53063;39.614;8.814;2023-12-28T09:55:51;14.82;;;8.88;;
66270;SDS011;53063;39.614;8.814;2023-12-28T09:58:18;10.15;;;4.55;;
66270;SDS011;53063;39.614;8.814;2023-12-28T10:00:45;9.63;;;4.68;;
66270;SDS011;53063;39.614;8.814;2023-12-28T10:03:13;19.23;;;8.98;;
66270;SDS011;53063;39.614;8.814;2023-12-28T10:05:42;6.68;;;3.30;;
66270;SDS011;53063;39.614;8.814;2023-12-28T10:08:13;12.60;;;4.68;;
66270;SDS011;53063;39.614;8.814;2023-12-28T10:10:40;19.10;;;7.28;;
66270;SDS011;53063;39.614;8.814;2023-12-28T10:13:07;13.80;;;6.90;;
66270;SDS011;53063;39.614;8.814;2023-12-28T10:15:37;10.43;;;4.57;;
66270;SDS011;53063;39.614;8.814;2023-12-28T10:18:03;15.23;;;5.35;;
66270;SDS011;53063;39.614;8.814;2023-12-28T10:20:30;9.00;;;4.57;;
66270;SDS011;53063;39.614;8.814;2023-12-28T10:22:57;12.15;;;4.25;;
66270;SDS011;53063;39.614;8.814;2023-12-28T10:25:23;7.00;;;3.15;;
66270;SDS011;53063;39.614;8.814;2023-12-28T10:27:50;5.35;;;2.53;;
66270;SDS011;53063;39.614;8.814;2023-12-28T10:30:20;41.75;;;15.13;;
66270;SDS011;53063;39.614;8.814;2023-12-28T10:32:46;5.38;;;1.80;;
66270;SDS011;53063;39.614;8.814;2023-12-28T10:35:12;19.17;;;6.05;;
66270;SDS011;53063;39.614;8.814;2023-12-28T10:37:42;35.72;;;13.50;;
66270;SDS011;53063;39.614;8.814;2023-12-28T10:40:11;144.10;;;51.95;;
66270;SDS011;53063;39.614;8.814;2023-12-28T10:43:01;61.13;;;23.35;;
66270;SDS011;53063;39.614;8.814;2023-12-28T10:45:32;44.08;;;15.68;;
66270;SDS011;53063;39.614;8.814;2023-12-28T10:48:08;47.47;;;17.33;;
66270;SDS011;53063;39.614;8.814;2023-12-28T10:50:41;15.38;;;7.07;;
66270;SDS011;53063;39.614;8.814;2023-12-28T10:55:40;3.97;;;1.95;;
66270;SDS011;53063;39.614;8.814;2023-12-28T10:58:17;2.97;;;1.55;;
66270;SDS011;53063;39.614;8.814;2023-12-28T11:00:54;4.28;;;2.58;;
66270;SDS011;53063;39.614;8.814;2023-12-28T11:03:27;10.43;;;6.65;;
66270;SDS011;53063;39.614;8.814;2023-12-28T11:05:59;5.95;;;3.13;;
66270;SDS011;53063;39.614;8.814;2023-12-28T11:08:26;4.97;;;2.30;;
66270;SDS011;53063;39.614;8.814;2023-12-28T11:10:54;4.47;;;2.55;;
66270;SDS011;53063;39.614;8.814;2023-12-28T11:13:21;5.45;;;2.75;;
66270;SDS011;53063;39.614;8.814;2023-12-28T11:15:48;14.85;;;3.97;;
66270;SDS011;53063;39.614;8.814;2023-12-28T11:18:16;5.75;;;2.25;;
66270;SDS011;53063;39.614;8.814;2023-12-28T11:20:44;6.60;;;2.95;;
66270;SDS011;53063;39.614;8.814;2023-12-28T11:23:10;7.05;;;2.95;;
66270;SDS011;53063;39.614;8.814;2023-12-28T11:25:37;9.20;;;5.00;;
66270;SDS011;53063;39.614;8.814;2023-12-28T11:28:10;14.35;;;7.10;;
66270;SDS011;53063;39.614;8.814;2023-12-28T11:30:37;4.57;;;3.00;;
66270;SDS011;53063;39.614;8.814;2023-12-28T11:33:04;4.43;;;2.50;;
66270;SDS011;53063;39.614;8.814;2023-12-28T11:35:34;4.70;;;1.40;;
66270;SDS011;53063;39.614;8.814;2023-12-28T11:38:04;5.75;;;3.60;;
66270;SDS011;53063;39.614;8.814;2023-12-28T11:40:44;7.35;;;3.53;;
66270;SDS011;53063;39.614;8.814;2023-12-28T11:43:20;10.25;;;4.75;;
66270;SDS011;53063;39.614;8.814;2023-12-28T11:45:50;4.45;;;2.08;;
66270;SDS011;53063;39.614;8.814;2023-12-28T11:48:23;31.30;;;18.25;;
66270;SDS011;53063;39.614;8.814;2023-12-28T11:50:59;9.40;;;4.60;;
66270;SDS011;53063;39.614;8.814;2023-12-28T11:53:25;19.35;;;8.73;;
66270;SDS011;53063;39.614;8.814;2023-12-28T11:55:52;25.60;;;11.52;;
66270;SDS011;53063;39.614;8.814;2023-12-28T11:58:24;38.35;;;17.85;;
66270;SDS011;53063;39.614;8.814;2023-12-28T12:00:50;11.07;;;5.65;;
66270;SDS011;53063;39.614;8.814;2023-12-28T12:03:16;63.75;;;26.98;;
66270;SDS011;53063;39.614;8.814;2023-12-28T12:05:42;9.80;;;5.38;;
66270;SDS011;53063;39.614;8.814;2023-12-28T12:08:09;9.73;;;5.07;;
66270;SDS011;53063;39.614;8.814;2023-12-28T12:10:42;7.15;;;2.95;;
66270;SDS011;53063;39.614;8.814;2023-12-28T12:13:08;8.30;;;3.00;;
66270;SDS011;53063;39.614;8.814;2023-12-28T12:15:34;5.68;;;2.95;;
66270;SDS011;53063;39.614;8.814;2023-12-28T12:18:01;2.85;;;1.80;;
66270;SDS011;53063;39.614;8.814;2023-12-28T12:20:28;1.75;;;0.82;;
66270;SDS011;53063;39.614;8.814;2023-12-28T12:22:58;3.33;;;1.60;;
66270;SDS011;53063;39.614;8.814;2023-12-28T12:25:25;4.20;;;2.03;;
66270;SDS011;53063;39.614;8.814;2023-12-28T12:27:51;1.92;;;0.95;;
66270;SDS011;53063;39.614;8.814;2023-12-28T12:30:17;1.77;;;1.20;;
66270;SDS011;53063;39.614;8.814;2023-12-28T12:32:44;4.95;;;1.90;;
66270;SDS011;53063;39.614;8.814;2023-12-28T12:35:10;3.63;;;1.88;;
66270;SDS011;53063;39.614;8.814;2023-12-28T12:37:37;5.57;;;2.60;;
66270;SDS011;53063;39.614;8.814;2023-12-28T12:40:03;4.93;;;2.08;;
66270;SDS011;53063;39.614;8.814;2023-12-28T12:42:31;7.15;;;3.83;;
66270;SDS011;53063;39.614;8.814;2023-12-28T12:44:58;7.00;;;3.88;;
66270;SDS011;53063;39.614;8.814;2023-12-28T12:47:24;18.77;;;5.65;;
66270;SDS011;53063;39.614;8.814;2023-12-28T12:49:55;8.90;;;3.38;;
66270;SDS011;53063;39.614;8.814;2023-12-28T12:52:21;9.60;;;4.13;;
66270;SDS011;53063;39.614;8.814;2023-12-28T12:54:52;7.28;;;3.72;;
66270;SDS011;53063;39.614;8.814;2023-12-28T12:57:21;10.65;;;3.38;;
66270;SDS011;53063;39.614;8.814;2023-12-28T12:59:49;2.85;;;1.48;;
66270;SDS011;53063;39.614;8.814;2023-12-28T13:02:15;3.92;;;1.90;;
66270;SDS011;53063;39.614;8.814;2023-12-28T13:04:42;6.65;;;1.77;;
66270;SDS011;53063;39.614;8.814;2023-12-28T13:07:07;6.85;;;2.38;;
66270;SDS011;53063;39.614;8.814;2023-12-28T13:09:34;6.88;;;4.05;;
66270;SDS011;53063;39.614;8.814;2023-12-28T13:12:01;6.15;;;3.22;;
66270;SDS011;53063;39.614;8.814;2023-12-28T13:14:28;4.60;;;2.20;;
66270;SDS011;53063;39.614;8.814;2023-12-28T13:16:55;3.00;;;2.10;;
66270;SDS011;53063;39.614;8.814;2023-12-28T13:19:21;5.28;;;2.00;;
66270;SDS011;53063;39.614;8.814;2023-12-28T13:21:47;3.88;;;1.92;;
66270;SDS011;53063;39.614;8.814;2023-12-28T13:24:12;5.72;;;1.90;;
66270;SDS011;53063;39.614;8.814;2023-12-28T13:26:39;4.47;;;1.50;;
66270;SDS011;53063;39.614;8.814;2023-12-28T13:29:04;3.97;;;1.65;;
66270;SDS011;53063;39.614;8.814;2023-12-28T13:31:30;2.97;;;1.10;;
66270;SDS011;53063;39.614;8.814;2023-12-28T13:33:56;3.60;;;1.70;;
66270;SDS011;53063;39.614;8.814;2023-12-28T13:36:23;6.50;;;2.67;;
66270;SDS011;53063;39.614;8.814;2023-12-28T13:38:49;1.30;;;1.00;;
66270;SDS011;53063;39.614;8.814;2023-12-28T13:41:15;4.22;;;1.92;;
66270;SDS011;53063;39.614;8.814;2023-12-28T13:43:41;3.03;;;1.20;;
66270;SDS011;53063;39.614;8.814;2023-12-28T13:46:06;3.30;;;1.33;;
66270;SDS011;53063;39.614;8.814;2023-12-28T13:48:33;8.55;;;4.57;;
66270;SDS011;53063;39.614;8.814;2023-12-28T13:51:00;6.15;;;2.55;;
66270;SDS011;53063;39.614;8.814;2023-12-28T13:53:26;4.53;;;2.20;;
66270;SDS011;53063;39.614;8.814;2023-12-28T13:55:52;3.65;;;2.22;;
66270;SDS011;53063;39.614;8.814;2023-12-28T13:58:18;2.13;;;1.63;;
66270;SDS011;53063;39.614;8.814;2023-12-28T14:00:44;23.50;;;8.60;;
66270;SDS011;53063;39.614;8.814;2023-12-28T14:03:10;5.68;;;2.15;;
66270;SDS011;53063;39.614;8.814;2023-12-28T14:05:36;6.05;;;1.67;;
66270;SDS011;53063;39.614;8.814;2023-12-28T14:08:02;5.38;;;2.15;;
66270;SDS011;53063;39.614;8.814;2023-12-28T14:10:29;4.20;;;1.90;;
66270;SDS011;53063;39.614;8.814;2023-12-28T14:12:55;5.55;;;2.20;;
66270;SDS011;53063;39.614;8.814;2023-12-28T14:15:21;10.23;;;9.18;;
66270;SDS011;53063;39.614;8.814;2023-12-28T14:17:47;7.90;;;5.00;;
66270;SDS011;53063;39.614;8.814;2023-12-28T14:20:13;4.55;;;3.75;;
66270;SDS011;53063;39.614;8.814;2023-12-28T14:22:39;48.55;;;26.65;;
66270;SDS011;53063;39.614;8.814;2023-12-28T14:25:07;20.33;;;11.85;;
66270;SDS011;53063;39.614;8.814;2023-12-28T14:27:37;30.73;;;18.27;;
66270;SDS011;53063;39.614;8.814;2023-12-28T14:30:04;5.22;;;3.45;;
66270;SDS011;53063;39.614;8.814;2023-12-28T14:32:31;5.00;;;2.28;;
66270;SDS011;53063;39.614;8.814;2023-12-28T14:34:57;3.60;;;2.65;;
66270;SDS011;53063;39.614;8.814;2023-12-28T14:37:24;7.60;;;5.20;;
66270;SDS011;53063;39.614;8.814;2023-12-28T14:39:50;4.95;;;2.70;;
66270;SDS011;53063;39.614;8.814;2023-12-28T14:42:15;6.25;;;3.70;;
66270;SDS011;53063;39.614;8.814;2023-12-28T14:44:41;8.07;;;4.00;;